sensor_id;sensor_type;location;lat;lon;timestamp;P1;durP1;ratioP1;P2;durP2;ratioP2
11988;SDS011;6054;50.966;7.094;2023-09-12T00:00:04;10.82;;;6.70;;
11988;SDS011;6054;50.966;7.094;2023-09-12T00:02:31;12.38;;;8.40;;
11988;SDS011;6054;50.966;7.094;2023-09-12T00:04:58;10.02;;;6.93;;
11988;SDS011;6054;50.966;7.094;2023-09-12T00:07:25;9.27;;;6.95;;
11988;SDS011;6054;50.966;7.094;2023-09-12T00:09:53;9.75;;;7.50;;
11988;SDS011;6054;50.966;7.094;2023-09-12T00:12:22;8.35;;;6.55;;
11988;SDS011;6054;50.966;7.094;2023-09-12T00:14:50;9.48;;;7.18;;
11988;SDS011;6054;50.966;7.094;2023-09-12T00:17:17;8.95;;;6.10;;
11988;SDS011;6054;50.966;7.094;2023-09-12T00:19:43;10.00;;;6.25;;
11988;SDS011;6054;50.966;7.094;2023-09-12T00:22:10;9.68;;;6.72;;
11988;SDS011;6054;50.966;7.094;2023-09-12T00:24:37;6.75;;;6.15;;
11988;SDS011;6054;50.966;7.094;2023-09-12T00:27:04;8.23;;;5.55;;
11988;SDS011;6054;50.966;7.094;2023-09-12T00:29:32;8.13;;;5.88;;
11988;SDS011;6054;50.966;7.094;2023-09-12T00:31:59;8.05;;;6.30;;
11988;SDS011;6054;50.966;7.094;2023-09-12T00:34:26;6.53;;;5.93;;
11988;SDS011;6054;50.966;7.094;2023-09-12T00:36:52;6.72;;;5.45;;
11988;SDS011;6054;50.966;7.094;2023-09-12T00:39:19;8.95;;;5.40;;
11988;SDS011;6054;50.966;7.094;2023-09-12T00:41:46;7.20;;;5.05;;
11988;SDS011;6054;50.966;7.094;2023-09-12T00:44:12;6.07;;;4.68;;
11988;SDS011;6054;50.966;7.094;2023-09-12T00:46:40;11.05;;;5.60;;
11988;SDS011;6054;50.966;7.094;2023-09-12T00:49:10;7.95;;;5.10;;
11988;SDS011;6054;50.966;7.094;2023-09-12T00:51:37;10.85;;;5.40;;
11988;SDS011;6054;50.966;7.094;2023-09-12T00:54:05;5.53;;;4.95;;
11988;SDS011;6054;50.966;7.094;2023-09-12T00:56:32;7.45;;;4.80;;
11988;SDS011;6054;50.966;7.094;2023-09-12T00:58:59;5.97;;;4.35;;
11988;SDS011;6054;50.966;7.094;2023-09-12T01:01:27;7.65;;;4.55;;
11988;SDS011;6054;50.966;7.094;2023-09-12T01:03:55;7.88;;;4.82;;
11988;SDS011;6054;50.966;7.094;2023-09-12T01:06:23;7.25;;;4.60;;
11988;SDS011;6054;50.966;7.094;2023-09-12T01:08:52;5.72;;;4.88;;
11988;SDS011;6054;50.966;7.094;2023-09-12T01:11:19;8.85;;;4.45;;
11988;SDS011;6054;50.966;7.094;2023-09-12T01:13:47;5.55;;;5.05;;
11988;SDS011;6054;50.966;7.094;2023-09-12T01:16:13;6.88;;;4.75;;
11988;SDS011;6054;50.966;7.094;2023-09-12T01:18:40;4.63;;;4.22;;
11988;SDS011;6054;50.966;7.094;2023-09-12T01:21:19;7.43;;;4.05;;
11988;SDS011;6054;50.966;7.094;2023-09-12T01:24:12;5.53;;;4.40;;
11988;SDS011;6054;50.966;7.094;2023-09-12T01:26:56;4.57;;;3.83;;
11988;SDS011;6054;50.966;7.094;2023-09-12T01:29:38;3.90;;;3.60;;
11988;SDS011;6054;50.966;7.094;2023-09-12T01:32:06;7.18;;;3.78;;
11988;SDS011;6054;50.966;7.094;2023-09-12T01:34:34;4.07;;;3.75;;
11988;SDS011;6054;50.966;7.094;2023-09-12T01:37:01;5.88;;;3.50;;
11988;SDS011;6054;50.966;7.094;2023-09-12T01:39:27;3.90;;;3.58;;
11988;SDS011;6054;50.966;7.094;2023-09-12T01:41:54;8.02;;;4.07;;
11988;SDS011;6054;50.966;7.094;2023-09-12T01:44:23;6.32;;;4.13;;
11988;SDS011;6054;50.966;7.094;2023-09-12T01:46:51;3.85;;;3.55;;
11988;SDS011;6054;50.966;7.094;2023-09-12T01:49:19;5.55;;;3.72;;
11988;SDS011;6054;50.966;7.094;2023-09-12T01:51:48;4.95;;;3.65;;
11988;SDS011;6054;50.966;7.094;2023-09-12T01:54:16;3.92;;;3.45;;
11988;SDS011;6054;50.966;7.094;2023-09-12T01:56:43;6.40;;;4.13;;
11988;SDS011;6054;50.966;7.094;2023-09-12T01:59:11;7.32;;;3.85;;
11988;SDS011;6054;50.966;7.094;2023-09-12T02:01:39;4.38;;;3.72;;
11988;SDS011;6054;50.966;7.094;2023-09-12T02:04:07;7.13;;;4.20;;
11988;SDS011;6054;50.966;7.094;2023-09-12T02:06:34;4.40;;;3.53;;
11988;SDS011;6054;50.966;7.094;2023-09-12T02:09:01;7.40;;;3.30;;
11988;SDS011;6054;50.966;7.094;2023-09-12T02:11:28;6.32;;;4.05;;
11988;SDS011;6054;50.966;7.094;2023-09-12T02:13:55;6.32;;;3.70;;
11988;SDS011;6054;50.966;7.094;2023-09-12T02:16:21;4.60;;;3.60;;
11988;SDS011;6054;50.966;7.094;2023-09-12T02:18:49;7.32;;;3.13;;
11988;SDS011;6054;50.966;7.094;2023-09-12T02:21:16;4.60;;;3.90;;
11988;SDS011;6054;50.966;7.094;2023-09-12T02:23:43;3.80;;;3.03;;
11988;SDS011;6054;50.966;7.094;2023-09-12T02:26:10;3.75;;;3.30;;
11988;SDS011;6054;50.966;7.094;2023-09-12T02:28:37;5.38;;;3.47;;
11988;SDS011;6054;50.966;7.094;2023-09-12T02:31:03;9.50;;;3.60;;
11988;SDS011;6054;50.966;7.094;2023-09-12T02:33:37;4.25;;;3.05;;
11988;SDS011;6054;50.966;7.094;2023-09-12T02:36:05;5.13;;;3.47;;
11988;SDS011;6054;50.966;7.094;2023-09-12T02:38:32;6.32;;;3.45;;
11988;SDS011;6054;50.966;7.094;2023-09-12T02:40:59;3.88;;;3.42;;
11988;SDS011;6054;50.966;7.094;2023-09-12T02:43:27;4.57;;;4.00;;
11988;SDS011;6054;50.966;7.094;2023-09-12T02:45:54;4.72;;;3.47;;
11988;SDS011;6054;50.966;7.094;2023-09-12T02:48:21;4.07;;;3.42;;
11988;SDS011;6054;50.966;7.094;2023-09-12T02:50:47;5.28;;;3.53;;
11988;SDS011;6054;50.966;7.094;2023-09-12T02:53:15;4.13;;;3.30;;
11988;SDS011;6054;50.966;7.094;2023-09-12T02:55:42;4.15;;;3.30;;
11988;SDS011;6054;50.966;7.094;2023-09-12T02:58:09;4.85;;;3.40;;
11988;SDS011;6054;50.966;7.094;2023-09-12T03:00:37;3.75;;;3.30;;
11988;SDS011;6054;50.966;7.094;2023-09-12T03:03:04;4.68;;;3.10;;
11988;SDS011;6054;50.966;7.094;2023-09-12T03:05:31;3.85;;;3.08;;
11988;SDS011;6054;50.966;7.094;2023-09-12T03:07:58;3.15;;;2.95;;
11988;SDS011;6054;50.966;7.094;2023-09-12T03:10:26;3.35;;;3.10;;
11988;SDS011;6054;50.966;7.094;2023-09-12T03:12:53;3.67;;;3.10;;
11988;SDS011;6054;50.966;7.094;2023-09-12T03:15:20;3.85;;;3.30;;
11988;SDS011;6054;50.966;7.094;2023-09-12T03:17:46;4.38;;;3.55;;
11988;SDS011;6054;50.966;7.094;2023-09-12T03:20:13;4.75;;;3.45;;
11988;SDS011;6054;50.966;7.094;2023-09-12T03:22:40;6.40;;;3.33;;
11988;SDS011;6054;50.966;7.094;2023-09-12T03:25:07;3.90;;;3.60;;
11988;SDS011;6054;50.966;7.094;2023-09-12T03:27:35;6.28;;;2.90;;
11988;SDS011;6054;50.966;7.094;2023-09-12T03:30:02;5.13;;;3.17;;
11988;SDS011;6054;50.966;7.094;2023-09-12T03:32:30;4.45;;;3.10;;
11988;SDS011;6054;50.966;7.094;2023-09-12T03:34:57;5.72;;;3.50;;
11988;SDS011;6054;50.966;7.094;2023-09-12T03:37:23;3.65;;;3.30;;
11988;SDS011;6054;50.966;7.094;2023-09-12T03:39:52;3.40;;;3.10;;
11988;SDS011;6054;50.966;7.094;2023-09-12T03:42:19;5.03;;;3.45;;
11988;SDS011;6054;50.966;7.094;2023-09-12T03:44:47;4.53;;;3.38;;
11988;SDS011;6054;50.966;7.094;2023-09-12T03:47:14;3.58;;;3.30;;
11988;SDS011;6054;50.966;7.094;2023-09-12T03:49:41;3.13;;;2.92;;
11988;SDS011;6054;50.966;7.094;2023-09-12T03:52:07;4.35;;;3.15;;
11988;SDS011;6054;50.966;7.094;2023-09-12T03:54:34;3.72;;;3.42;;
11988;SDS011;6054;50.966;7.094;2023-09-12T03:57:01;3.40;;;3.10;;
11988;SDS011;6054;50.966;7.094;2023-09-12T03:59:28;3.58;;;3.28;;
11988;SDS011;6054;50.966;7.094;2023-09-12T04:01:56;5.88;;;3.97;;
11988;SDS011;6054;50.966;7.094;2023-09-12T04:04:22;3.55;;;3.25;;
11988;SDS011;6054;50.966;7.094;2023-09-12T04:06:49;4.25;;;3.22;;
11988;SDS011;6054;50.966;7.094;2023-09-12T04:09:16;4.40;;;3.72;;
11988;SDS011;6054;50.966;7.094;2023-09-12T04:11:43;3.53;;;3.20;;
11988;SDS011;6054;50.966;7.094;2023-09-12T04:14:09;4.38;;;3.67;;
11988;SDS011;6054;50.966;7.094;2023-09-12T04:16:36;3.78;;;2.97;;
11988;SDS011;6054;50.966;7.094;2023-09-12T04:19:04;5.78;;;3.25;;
11988;SDS011;6054;50.966;7.094;2023-09-12T04:21:31;3.65;;;3.17;;
11988;SDS011;6054;50.966;7.094;2023-09-12T04:23:58;7.68;;;3.60;;
11988;SDS011;6054;50.966;7.094;2023-09-12T04:26:25;3.17;;;2.72;;
11988;SDS011;6054;50.966;7.094;2023-09-12T04:28:51;3.60;;;3.30;;
11988;SDS011;6054;50.966;7.094;2023-09-12T04:31:18;3.50;;;3.20;;
11988;SDS011;6054;50.966;7.094;2023-09-12T04:33:45;4.13;;;3.08;;
11988;SDS011;6054;50.966;7.094;2023-09-12T04:36:13;4.18;;;3.10;;
11988;SDS011;6054;50.966;7.094;2023-09-12T04:38:40;5.13;;;3.40;;
11988;SDS011;6054;50.966;7.094;2023-09-12T04:41:06;3.30;;;3.10;;
11988;SDS011;6054;50.966;7.094;2023-09-12T04:43:33;3.40;;;3.10;;
11988;SDS011;6054;50.966;7.094;2023-09-12T04:46:00;5.10;;;3.22;;
11988;SDS011;6054;50.966;7.094;2023-09-12T04:48:27;3.30;;;3.00;;
11988;SDS011;6054;50.966;7.094;2023-09-12T04:50:54;4.30;;;2.95;;
11988;SDS011;6054;50.966;7.094;2023-09-12T04:53:23;4.32;;;3.35;;
11988;SDS011;6054;50.966;7.094;2023-09-12T04:55:51;4.90;;;3.40;;
11988;SDS011;6054;50.966;7.094;2023-09-12T04:58:18;3.35;;;2.90;;
11988;SDS011;6054;50.966;7.094;2023-09-12T05:00:45;5.43;;;3.20;;
11988;SDS011;6054;50.966;7.094;2023-09-12T05:03:12;4.57;;;3.20;;
11988;SDS011;6054;50.966;7.094;2023-09-12T05:05:39;5.28;;;3.60;;
11988;SDS011;6054;50.966;7.094;2023-09-12T05:08:05;5.10;;;3.47;;
11988;SDS011;6054;50.966;7.094;2023-09-12T05:10:33;4.78;;;3.85;;
11988;SDS011;6054;50.966;7.094;2023-09-12T05:13:00;3.33;;;3.03;;
11988;SDS011;6054;50.966;7.094;2023-09-12T05:15:27;3.63;;;3.35;;
11988;SDS011;6054;50.966;7.094;2023-09-12T05:17:53;4.63;;;3.35;;
11988;SDS011;6054;50.966;7.094;2023-09-12T05:20:20;3.70;;;3.40;;
11988;SDS011;6054;50.966;7.094;2023-09-12T05:22:47;4.90;;;3.60;;
11988;SDS011;6054;50.966;7.094;2023-09-12T05:25:14;6.38;;;3.60;;
11988;SDS011;6054;50.966;7.094;2023-09-12T05:27:42;6.57;;;3.42;;
11988;SDS011;6054;50.966;7.094;2023-09-12T05:30:09;4.93;;;3.35;;
11988;SDS011;6054;50.966;7.094;2023-09-12T05:32:36;6.18;;;3.75;;
11988;SDS011;6054;50.966;7.094;2023-09-12T05:35:03;4.10;;;3.40;;
11988;SDS011;6054;50.966;7.094;2023-09-12T05:37:30;5.05;;;3.50;;
11988;SDS011;6054;50.966;7.094;2023-09-12T05:39:57;4.93;;;3.45;;
11988;SDS011;6054;50.966;7.094;2023-09-12T05:42:23;4.50;;;4.10;;
11988;SDS011;6054;50.966;7.094;2023-09-12T05:44:52;4.55;;;3.85;;
11988;SDS011;6054;50.966;7.094;2023-09-12T05:47:19;4.85;;;4.20;;
11988;SDS011;6054;50.966;7.094;2023-09-12T05:49:46;6.03;;;4.22;;
11988;SDS011;6054;50.966;7.094;2023-09-12T05:52:13;6.60;;;4.43;;
11988;SDS011;6054;50.966;7.094;2023-09-12T05:54:40;5.03;;;4.15;;
11988;SDS011;6054;50.966;7.094;2023-09-12T05:57:07;4.57;;;4.13;;
11988;SDS011;6054;50.966;7.094;2023-09-12T05:59:35;5.60;;;5.10;;
11988;SDS011;6054;50.966;7.094;2023-09-12T06:02:04;7.68;;;4.90;;
11988;SDS011;6054;50.966;7.094;2023-09-12T06:04:33;7.22;;;5.15;;
11988;SDS011;6054;50.966;7.094;2023-09-12T06:07:00;7.65;;;5.45;;
11988;SDS011;6054;50.966;7.094;2023-09-12T06:09:28;7.53;;;4.93;;
11988;SDS011;6054;50.966;7.094;2023-09-12T06:11:55;5.35;;;4.85;;
11988;SDS011;6054;50.966;7.094;2023-09-12T06:14:21;7.50;;;5.05;;
11988;SDS011;6054;50.966;7.094;2023-09-12T06:16:48;7.95;;;4.55;;
11988;SDS011;6054;50.966;7.094;2023-09-12T06:19:16;5.20;;;4.43;;
11988;SDS011;6054;50.966;7.094;2023-09-12T06:21:44;5.63;;;4.30;;
11988;SDS011;6054;50.966;7.094;2023-09-12T06:24:12;7.20;;;4.47;;
11988;SDS011;6054;50.966;7.094;2023-09-12T06:26:40;4.78;;;4.30;;
11988;SDS011;6054;50.966;7.094;2023-09-12T06:29:07;5.53;;;3.95;;
11988;SDS011;6054;50.966;7.094;2023-09-12T06:31:34;4.93;;;3.85;;
11988;SDS011;6054;50.966;7.094;2023-09-12T06:34:01;5.22;;;4.72;;
11988;SDS011;6054;50.966;7.094;2023-09-12T06:36:30;4.32;;;3.92;;
11988;SDS011;6054;50.966;7.094;2023-09-12T06:38:56;4.75;;;4.32;;
11988;SDS011;6054;50.966;7.094;2023-09-12T06:41:23;7.75;;;4.57;;
11988;SDS011;6054;50.966;7.094;2023-09-12T06:43:51;6.93;;;4.50;;
11988;SDS011;6054;50.966;7.094;2023-09-12T06:46:17;8.23;;;5.00;;
11988;SDS011;6054;50.966;7.094;2023-09-12T06:48:44;6.32;;;4.30;;
11988;SDS011;6054;50.966;7.094;2023-09-12T06:51:11;5.72;;;5.10;;
11988;SDS011;6054;50.966;7.094;2023-09-12T06:53:40;6.82;;;4.43;;
11988;SDS011;6054;50.966;7.094;2023-09-12T06:56:07;7.30;;;5.63;;
11988;SDS011;6054;50.966;7.094;2023-09-12T06:58:33;7.50;;;5.82;;
11988;SDS011;6054;50.966;7.094;2023-09-12T07:01:04;9.63;;;7.07;;
11988;SDS011;6054;50.966;7.094;2023-09-12T07:03:31;9.60;;;7.40;;
11988;SDS011;6054;50.966;7.094;2023-09-12T07:05:57;8.32;;;7.35;;
11988;SDS011;6054;50.966;7.094;2023-09-12T07:08:24;10.85;;;7.03;;
11988;SDS011;6054;50.966;7.094;2023-09-12T07:10:52;8.25;;;6.78;;
11988;SDS011;6054;50.966;7.094;2023-09-12T07:13:20;7.95;;;6.80;;
11988;SDS011;6054;50.966;7.094;2023-09-12T07:15:47;6.70;;;6.10;;
11988;SDS011;6054;50.966;7.094;2023-09-12T07:18:13;8.02;;;6.57;;
11988;SDS011;6054;50.966;7.094;2023-09-12T07:20:41;10.52;;;6.18;;
11988;SDS011;6054;50.966;7.094;2023-09-12T07:23:07;8.85;;;6.18;;
11988;SDS011;6054;50.966;7.094;2023-09-12T07:25:37;10.93;;;5.50;;
11988;SDS011;6054;50.966;7.094;2023-09-12T07:28:07;7.45;;;5.78;;
11988;SDS011;6054;50.966;7.094;2023-09-12T07:30:34;6.90;;;5.55;;
11988;SDS011;6054;50.966;7.094;2023-09-12T07:33:02;7.63;;;5.00;;
11988;SDS011;6054;50.966;7.094;2023-09-12T07:35:29;7.60;;;5.10;;
11988;SDS011;6054;50.966;7.094;2023-09-12T07:37:56;7.00;;;5.03;;
11988;SDS011;6054;50.966;7.094;2023-09-12T07:40:23;6.53;;;4.50;;
11988;SDS011;6054;50.966;7.094;2023-09-12T07:42:49;5.47;;;4.97;;
11988;SDS011;6054;50.966;7.094;2023-09-12T07:45:18;7.45;;;4.57;;
11988;SDS011;6054;50.966;7.094;2023-09-12T07:47:45;7.03;;;5.57;;
11988;SDS011;6054;50.966;7.094;2023-09-12T07:50:12;7.13;;;5.13;;
11988;SDS011;6054;50.966;7.094;2023-09-12T07:52:38;6.95;;;4.75;;
11988;SDS011;6054;50.966;7.094;2023-09-12T07:55:06;10.15;;;5.10;;
11988;SDS011;6054;50.966;7.094;2023-09-12T07:57:34;5.22;;;4.72;;
11988;SDS011;6054;50.966;7.094;2023-09-12T08:00:01;6.00;;;4.65;;
11988;SDS011;6054;50.966;7.094;2023-09-12T08:02:33;8.65;;;4.50;;
11988;SDS011;6054;50.966;7.094;2023-09-12T08:05:00;6.95;;;5.00;;
11988;SDS011;6054;50.966;7.094;2023-09-12T08:07:27;5.80;;;5.22;;
11988;SDS011;6054;50.966;7.094;2023-09-12T08:09:54;7.20;;;5.18;;
11988;SDS011;6054;50.966;7.094;2023-09-12T08:12:23;5.53;;;4.70;;
11988;SDS011;6054;50.966;7.094;2023-09-12T08:14:51;9.10;;;5.50;;
11988;SDS011;6054;50.966;7.094;2023-09-12T08:17:18;5.70;;;5.20;;
11988;SDS011;6054;50.966;7.094;2023-09-12T08:19:47;6.35;;;5.00;;
11988;SDS011;6054;50.966;7.094;2023-09-12T08:22:13;7.40;;;5.20;;
11988;SDS011;6054;50.966;7.094;2023-09-12T08:24:40;7.88;;;5.70;;
11988;SDS011;6054;50.966;7.094;2023-09-12T08:27:07;6.90;;;5.15;;
11988;SDS011;6054;50.966;7.094;2023-09-12T08:29:34;7.93;;;5.28;;
11988;SDS011;6054;50.966;7.094;2023-09-12T08:32:02;7.13;;;5.18;;
11988;SDS011;6054;50.966;7.094;2023-09-12T08:34:28;7.05;;;5.82;;
11988;SDS011;6054;50.966;7.094;2023-09-12T08:36:56;5.38;;;4.88;;
11988;SDS011;6054;50.966;7.094;2023-09-12T08:39:24;5.35;;;4.85;;
11988;SDS011;6054;50.966;7.094;2023-09-12T08:41:52;11.88;;;6.35;;
11988;SDS011;6054;50.966;7.094;2023-09-12T08:44:19;7.25;;;5.88;;
11988;SDS011;6054;50.966;7.094;2023-09-12T08:46:47;5.90;;;5.40;;
11988;SDS011;6054;50.966;7.094;2023-09-12T08:49:14;6.75;;;5.60;;
11988;SDS011;6054;50.966;7.094;2023-09-12T08:51:41;6.90;;;5.38;;
11988;SDS011;6054;50.966;7.094;2023-09-12T08:54:09;6.63;;;5.57;;
11988;SDS011;6054;50.966;7.094;2023-09-12T08:56:36;7.70;;;5.95;;
11988;SDS011;6054;50.966;7.094;2023-09-12T08:59:06;7.07;;;5.57;;
11988;SDS011;6054;50.966;7.094;2023-09-12T09:01:33;8.02;;;5.60;;
11988;SDS011;6054;50.966;7.094;2023-09-12T09:04:01;7.93;;;5.40;;
11988;SDS011;6054;50.966;7.094;2023-09-12T09:06:28;8.90;;;6.03;;
11988;SDS011;6054;50.966;7.094;2023-09-12T09:08:57;7.88;;;6.20;;
11988;SDS011;6054;50.966;7.094;2023-09-12T09:11:27;10.35;;;6.88;;
11988;SDS011;6054;50.966;7.094;2023-09-12T09:13:54;7.68;;;6.35;;
11988;SDS011;6054;50.966;7.094;2023-09-12T09:16:21;10.18;;;7.03;;
11988;SDS011;6054;50.966;7.094;2023-09-12T09:18:49;7.70;;;6.90;;
11988;SDS011;6054;50.966;7.094;2023-09-12T09:21:17;6.90;;;6.18;;
11988;SDS011;6054;50.966;7.094;2023-09-12T09:23:44;7.55;;;6.75;;
11988;SDS011;6054;50.966;7.094;2023-09-12T09:26:12;9.98;;;6.57;;
11988;SDS011;6054;50.966;7.094;2023-09-12T09:28:40;8.20;;;6.65;;
11988;SDS011;6054;50.966;7.094;2023-09-12T09:31:09;8.65;;;6.50;;
11988;SDS011;6054;50.966;7.094;2023-09-12T09:33:37;8.80;;;6.68;;
11988;SDS011;6054;50.966;7.094;2023-09-12T09:36:06;9.18;;;7.03;;
11988;SDS011;6054;50.966;7.094;2023-09-12T09:38:34;9.00;;;7.22;;
11988;SDS011;6054;50.966;7.094;2023-09-12T09:41:03;9.68;;;7.07;;
11988;SDS011;6054;50.966;7.094;2023-09-12T09:43:30;9.75;;;8.07;;
11988;SDS011;6054;50.966;7.094;2023-09-12T09:45:59;9.27;;;7.55;;
11988;SDS011;6054;50.966;7.094;2023-09-12T09:48:26;8.80;;;6.20;;
11988;SDS011;6054;50.966;7.094;2023-09-12T09:50:53;9.57;;;7.35;;
11988;SDS011;6054;50.966;7.094;2023-09-12T09:53:26;11.20;;;7.20;;
11988;SDS011;6054;50.966;7.094;2023-09-12T09:55:52;7.05;;;5.80;;
11988;SDS011;6054;50.966;7.094;2023-09-12T09:58:34;9.20;;;6.93;;
11988;SDS011;6054;50.966;7.094;2023-09-12T10:01:02;9.80;;;7.65;;
11988;SDS011;6054;50.966;7.094;2023-09-12T10:03:34;9.20;;;6.63;;
11988;SDS011;6054;50.966;7.094;2023-09-12T10:06:03;8.75;;;6.07;;
11988;SDS011;6054;50.966;7.094;2023-09-12T10:08:31;7.80;;;6.50;;
11988;SDS011;6054;50.966;7.094;2023-09-12T10:10:58;11.15;;;6.65;;
11988;SDS011;6054;50.966;7.094;2023-09-12T10:13:26;8.05;;;6.47;;
11988;SDS011;6054;50.966;7.094;2023-09-12T10:15:57;9.30;;;7.30;;
11988;SDS011;6054;50.966;7.094;2023-09-12T10:18:27;7.13;;;6.43;;
11988;SDS011;6054;50.966;7.094;2023-09-12T10:21:03;7.05;;;6.45;;
11988;SDS011;6054;50.966;7.094;2023-09-12T10:23:36;8.52;;;6.95;;
11988;SDS011;6054;50.966;7.094;2023-09-12T10:26:07;10.18;;;6.80;;
11988;SDS011;6054;50.966;7.094;2023-09-12T10:28:36;8.80;;;6.35;;
11988;SDS011;6054;50.966;7.094;2023-09-12T10:31:05;6.78;;;6.13;;
11988;SDS011;6054;50.966;7.094;2023-09-12T10:33:36;9.50;;;6.55;;
11988;SDS011;6054;50.966;7.094;2023-09-12T10:36:03;7.35;;;6.50;;
11988;SDS011;6054;50.966;7.094;2023-09-12T10:38:32;6.38;;;5.10;;
11988;SDS011;6054;50.966;7.094;2023-09-12T10:41:02;8.57;;;5.38;;
11988;SDS011;6054;50.966;7.094;2023-09-12T10:43:31;6.70;;;6.00;;
11988;SDS011;6054;50.966;7.094;2023-09-12T10:46:00;6.40;;;5.80;;
11988;SDS011;6054;50.966;7.094;2023-09-12T10:48:28;9.45;;;6.32;;
11988;SDS011;6054;50.966;7.094;2023-09-12T10:50:57;6.70;;;6.00;;
11988;SDS011;6054;50.966;7.094;2023-09-12T10:53:27;7.80;;;6.10;;
11988;SDS011;6054;50.966;7.094;2023-09-12T10:55:57;11.48;;;6.57;;
11988;SDS011;6054;50.966;7.094;2023-09-12T10:58:25;8.13;;;6.00;;
11988;SDS011;6054;50.966;7.094;2023-09-12T11:03:50;7.38;;;6.43;;
11988;SDS011;6054;50.966;7.094;2023-09-12T11:06:22;6.78;;;6.07;;
11988;SDS011;6054;50.966;7.094;2023-09-12T11:11:45;6.53;;;5.40;;
11988;SDS011;6054;50.966;7.094;2023-09-12T11:14:12;6.07;;;4.88;;
11988;SDS011;6054;50.966;7.094;2023-09-12T11:16:41;5.82;;;5.32;;
11988;SDS011;6054;50.966;7.094;2023-09-12T11:19:15;7.32;;;4.78;;
11988;SDS011;6054;50.966;7.094;2023-09-12T11:21:43;8.13;;;5.15;;
11988;SDS011;6054;50.966;7.094;2023-09-12T11:24:11;6.93;;;5.50;;
11988;SDS011;6054;50.966;7.094;2023-09-12T11:26:56;5.60;;;4.85;;
11988;SDS011;6054;50.966;7.094;2023-09-12T11:29:27;7.32;;;5.05;;
11988;SDS011;6054;50.966;7.094;2023-09-12T11:31:56;9.10;;;4.88;;
11988;SDS011;6054;50.966;7.094;2023-09-12T11:34:24;6.07;;;5.40;;
11988;SDS011;6054;50.966;7.094;2023-09-12T11:36:54;8.00;;;5.85;;
11988;SDS011;6054;50.966;7.094;2023-09-12T11:39:23;5.57;;;5.07;;
11988;SDS011;6054;50.966;7.094;2023-09-12T11:41:50;5.88;;;5.00;;
11988;SDS011;6054;50.966;7.094;2023-09-12T11:44:20;5.88;;;5.28;;
11988;SDS011;6054;50.966;7.094;2023-09-12T11:46:47;7.20;;;5.78;;
11988;SDS011;6054;50.966;7.094;2023-09-12T11:49:15;5.68;;;5.10;;
11988;SDS011;6054;50.966;7.094;2023-09-12T11:51:46;5.82;;;4.95;;
11988;SDS011;6054;50.966;7.094;2023-09-12T11:54:14;8.20;;;5.50;;
11988;SDS011;6054;50.966;7.094;2023-09-12T11:56:41;7.05;;;6.05;;
11988;SDS011;6054;50.966;7.094;2023-09-12T11:59:08;5.70;;;5.18;;
11988;SDS011;6054;50.966;7.094;2023-09-12T12:01:36;5.90;;;5.30;;
11988;SDS011;6054;50.966;7.094;2023-09-12T12:04:03;6.38;;;5.78;;
11988;SDS011;6054;50.966;7.094;2023-09-12T12:06:31;8.00;;;5.32;;
11988;SDS011;6054;50.966;7.094;2023-09-12T12:09:00;6.70;;;5.30;;
11988;SDS011;6054;50.966;7.094;2023-09-12T12:11:29;6.78;;;5.68;;
11988;SDS011;6054;50.966;7.094;2023-09-12T12:13:56;5.75;;;5.15;;
11988;SDS011;6054;50.966;7.094;2023-09-12T12:16:24;5.70;;;5.22;;
11988;SDS011;6054;50.966;7.094;2023-09-12T12:18:53;8.02;;;5.43;;
11988;SDS011;6054;50.966;7.094;2023-09-12T12:21:22;6.05;;;4.82;;
11988;SDS011;6054;50.966;7.094;2023-09-12T12:23:57;9.23;;;5.10;;
11988;SDS011;6054;50.966;7.094;2023-09-12T12:26:24;6.65;;;5.13;;
11988;SDS011;6054;50.966;7.094;2023-09-12T12:28:51;8.35;;;5.57;;
11988;SDS011;6054;50.966;7.094;2023-09-12T12:31:18;7.28;;;6.55;;
11988;SDS011;6054;50.966;7.094;2023-09-12T12:33:47;7.00;;;6.05;;
11988;SDS011;6054;50.966;7.094;2023-09-12T12:36:15;6.55;;;5.90;;
11988;SDS011;6054;50.966;7.094;2023-09-12T12:38:42;5.97;;;5.47;;
11988;SDS011;6054;50.966;7.094;2023-09-12T12:41:12;5.70;;;5.18;;
11988;SDS011;6054;50.966;7.094;2023-09-12T12:43:40;5.88;;;5.25;;
11988;SDS011;6054;50.966;7.094;2023-09-12T12:46:09;6.03;;;5.45;;
11988;SDS011;6054;50.966;7.094;2023-09-12T12:48:37;8.10;;;5.32;;
11988;SDS011;6054;50.966;7.094;2023-09-12T12:51:16;8.23;;;5.85;;
11988;SDS011;6054;50.966;7.094;2023-09-12T12:53:45;6.82;;;5.53;;
11988;SDS011;6054;50.966;7.094;2023-09-12T12:56:13;8.20;;;5.38;;
11988;SDS011;6054;50.966;7.094;2023-09-12T12:58:51;5.55;;;4.65;;
11988;SDS011;6054;50.966;7.094;2023-09-12T13:01:18;5.43;;;4.82;;
11988;SDS011;6054;50.966;7.094;2023-09-12T13:03:45;6.32;;;5.18;;
11988;SDS011;6054;50.966;7.094;2023-09-12T13:06:12;5.55;;;5.07;;
11988;SDS011;6054;50.966;7.094;2023-09-12T13:08:44;11.15;;;5.70;;
11988;SDS011;6054;50.966;7.094;2023-09-12T13:11:13;7.28;;;5.50;;
11988;SDS011;6054;50.966;7.094;2023-09-12T13:13:41;6.78;;;5.68;;
11988;SDS011;6054;50.966;7.094;2023-09-12T13:16:09;8.10;;;5.35;;
11988;SDS011;6054;50.966;7.094;2023-09-12T13:18:39;6.70;;;5.32;;
11988;SDS011;6054;50.966;7.094;2023-09-12T13:21:06;7.57;;;5.07;;
11988;SDS011;6054;50.966;7.094;2023-09-12T13:23:33;6.25;;;5.40;;
11988;SDS011;6054;50.966;7.094;2023-09-12T13:26:01;9.32;;;5.10;;
11988;SDS011;6054;50.966;7.094;2023-09-12T13:28:29;8.82;;;5.45;;
11988;SDS011;6054;50.966;7.094;2023-09-12T13:30:56;7.38;;;5.50;;
11988;SDS011;6054;50.966;7.094;2023-09-12T13:33:23;6.80;;;5.30;;
11988;SDS011;6054;50.966;7.094;2023-09-12T13:35:50;8.80;;;5.15;;
11988;SDS011;6054;50.966;7.094;2023-09-12T13:38:17;5.93;;;5.18;;
11988;SDS011;6054;50.966;7.094;2023-09-12T13:40:45;5.35;;;4.93;;
11988;SDS011;6054;50.966;7.094;2023-09-12T13:43:14;7.25;;;5.28;;
11988;SDS011;6054;50.966;7.094;2023-09-12T13:45:40;5.60;;;5.03;;
11988;SDS011;6054;50.966;7.094;2023-09-12T13:48:07;6.85;;;5.13;;
11988;SDS011;6054;50.966;7.094;2023-09-12T13:50:34;9.02;;;5.32;;
11988;SDS011;6054;50.966;7.094;2023-09-12T13:53:02;5.25;;;4.72;;
11988;SDS011;6054;50.966;7.094;2023-09-12T13:55:31;6.35;;;4.65;;
11988;SDS011;6054;50.966;7.094;2023-09-12T13:57:58;4.97;;;4.57;;
11988;SDS011;6054;50.966;7.094;2023-09-12T14:00:26;5.75;;;5.00;;
11988;SDS011;6054;50.966;7.094;2023-09-12T14:02:53;5.35;;;4.85;;
11988;SDS011;6054;50.966;7.094;2023-09-12T14:05:20;5.72;;;4.40;;
11988;SDS011;6054;50.966;7.094;2023-09-12T14:07:47;5.38;;;4.65;;
11988;SDS011;6054;50.966;7.094;2023-09-12T14:10:14;7.78;;;4.72;;
11988;SDS011;6054;50.966;7.094;2023-09-12T14:12:41;5.13;;;4.63;;
11988;SDS011;6054;50.966;7.094;2023-09-12T14:15:09;7.82;;;4.50;;
11988;SDS011;6054;50.966;7.094;2023-09-12T14:17:40;6.85;;;4.70;;
11988;SDS011;6054;50.966;7.094;2023-09-12T14:20:07;4.93;;;4.20;;
11988;SDS011;6054;50.966;7.094;2023-09-12T14:22:35;6.25;;;4.55;;
11988;SDS011;6054;50.966;7.094;2023-09-12T14:25:02;4.93;;;4.43;;
11988;SDS011;6054;50.966;7.094;2023-09-12T14:27:29;6.18;;;4.43;;
11988;SDS011;6054;50.966;7.094;2023-09-12T14:29:56;6.05;;;4.35;;
11988;SDS011;6054;50.966;7.094;2023-09-12T14:32:24;7.95;;;4.60;;
11988;SDS011;6054;50.966;7.094;2023-09-12T14:34:52;5.07;;;4.60;;
11988;SDS011;6054;50.966;7.094;2023-09-12T14:37:19;5.20;;;4.70;;
11988;SDS011;6054;50.966;7.094;2023-09-12T14:39:47;4.88;;;4.45;;
11988;SDS011;6054;50.966;7.094;2023-09-12T14:42:14;5.05;;;4.60;;
11988;SDS011;6054;50.966;7.094;2023-09-12T14:44:41;6.30;;;4.45;;
11988;SDS011;6054;50.966;7.094;2023-09-12T14:47:07;5.40;;;4.40;;
11988;SDS011;6054;50.966;7.094;2023-09-12T14:49:35;5.10;;;4.47;;
11988;SDS011;6054;50.966;7.094;2023-09-12T14:52:03;4.55;;;4.20;;
11988;SDS011;6054;50.966;7.094;2023-09-12T14:54:30;5.88;;;4.60;;
11988;SDS011;6054;50.966;7.094;2023-09-12T14:56:57;5.38;;;4.85;;
11988;SDS011;6054;50.966;7.094;2023-09-12T14:59:24;4.82;;;4.40;;
11988;SDS011;6054;50.966;7.094;2023-09-12T15:01:51;5.30;;;4.70;;
11988;SDS011;6054;50.966;7.094;2023-09-12T15:04:17;5.25;;;4.18;;
11988;SDS011;6054;50.966;7.094;2023-09-12T15:06:44;4.65;;;4.25;;
11988;SDS011;6054;50.966;7.094;2023-09-12T15:09:12;5.63;;;4.55;;